Time;durP1;ratioP1;P1;durP2;ratioP2;P2;SDS_P1;SDS_P2;PMS_P1;PMS_P2;Temp;Humidity;BMP_temperature;BMP_pressure;BME280_temperature;BME280_humidity;BME280_pressure;Samples;Min_cycle;Max_cycle;Signal;HPM_P1;HPM_P2
2023/03/31 00:00:46;;;;;;;12.35;3.40;;;;;;;9.49;100.00;100376.41;5092708;28;20157;-75
2023/03/31 00:03:12;;;;;;;10.95;3.42;;;;;;;9.37;100.00;100351.44;5092525;28;20020;-74
2023/03/31 00:05:46;;;;;;;11.05;3.42;;;;;;;9.52;100.00;100384.84;5092167;28;20024;-74
2023/03/31 00:08:12;;;;;;;10.73;3.25;;;;;;;9.41;100.00;100352.06;5092851;28;20051;-74
2023/03/31 00:10:44;;;;;;;12.43;3.78;;;;;;;9.54;100.00;100373.53;5096467;28;20040;-76
2023/03/31 00:13:10;;;;;;;;;;;;;;;9.55;100.00;100366.63;5096953;28;20484;-75
2023/03/31 00:15:35;;;;;;;12.30;3.42;;;;;;;9.54;100.00;100358.06;5096473;28;19964;-76
2023/03/31 00:18:01;;;;;;;11.43;3.97;;;;;;;9.50;100.00;100343.72;5096144;28;20481;-76
2023/03/31 00:20:26;;;;;;;9.43;3.35;;;;;;;9.57;100.00;100342.41;5096428;28;20024;-75
2023/03/31 00:22:53;;;;;;;14.25;4.13;;;;;;;9.51;100.00;100321.34;5095955;28;20024;-76
2023/03/31 00:25:19;;;;;;;10.05;3.53;;;;;;;9.61;100.00;100327.53;5096191;28;20024;-75
2023/03/31 00:27:45;;;;;;;12.45;3.28;;;;;;;9.49;100.00;100304.22;5096228;28;20107;-76
2023/03/31 00:30:13;;;;;;;9.32;3.17;;;;;;;9.65;100.00;100326.44;5096160;28;20077;-75
2023/03/31 00:32:38;;;;;;;8.95;3.00;;;;;;;9.50;100.00;100299.91;5096073;28;20056;-77
2023/03/31 00:35:04;;;;;;;10.75;3.38;;;;;;;9.65;100.00;100321.28;5095988;28;20051;-75
2023/03/31 00:37:29;;;;;;;7.93;3.75;;;;;;;9.63;100.00;100310.22;5095674;28;20024;-75
2023/03/31 00:39:55;;;;;;;9.90;2.70;;;;;;;9.60;100.00;100310.44;5095950;28;20032;-76
2023/03/31 00:42:22;;;;;;;12.18;2.90;;;;;;;9.49;100.00;100299.09;5095813;28;20384;-76
2023/03/31 00:45:12;;;;;;;9.70;2.85;;;;;;;9.49;100.00;100293.09;5095941;28;20028;-75
2023/03/31 00:47:40;;;;;;;9.70;2.55;;;;;;;9.41;100.00;100279.91;5095908;28;20028;-78
2023/03/31 00:50:17;;;;;;;11.35;2.90;;;;;;;9.38;100.00;100277.53;5095650;28;20032;-76
2023/03/31 00:52:44;;;;;;;8.18;2.67;;;;;;;9.19;100.00;100250.41;5095607;28;20053;-76
2023/03/31 00:55:15;;;;;;;7.70;2.83;;;;;;;9.28;100.00;100266.19;5095863;28;20039;-77
2023/03/31 00:57:45;;;;;;;9.75;2.97;;;;;;;9.23;100.00;100252.78;5095246;28;20028;-78
2023/03/31 01:00:16;;;;;;;9.95;2.40;;;;;;;9.13;100.00;100239.69;5095642;28;20020;-77
2023/03/31 01:03:04;;;;;;;7.50;2.50;;;;;;;9.22;100.00;100238.25;5094307;28;20024;-77
2023/03/31 01:05:35;;;;;;;10.13;2.50;;;;;;;9.28;100.00;100251.56;5095270;28;20278;-79
2023/03/31 01:08:04;;;;;;;9.02;2.60;;;;;;;9.28;100.00;100253.31;5094937;28;20059;-80
2023/03/31 01:10:37;;;;;;;10.13;2.97;;;;;;;9.29;100.00;100245.47;5095483;28;20401;-80
2023/03/31 01:13:03;;;;;;;11.63;3.22;;;;;;;9.31;100.00;100235.88;5095247;28;20028;-77
2023/03/31 01:15:28;;;;;;;11.45;2.63;;;;;;;9.36;100.00;100236.41;5095222;28;20040;-79
2023/03/31 01:17:54;;;;;;;9.32;2.50;;;;;;;9.31;100.00;100217.84;5095014;28;20024;-79
2023/03/31 01:20:28;;;;;;;9.15;2.70;;;;;;;9.44;100.00;100229.00;5094813;28;20024;-78
2023/03/31 01:23:18;;;;;;;9.02;2.40;;;;;;;9.45;100.00;100224.66;5094737;28;20039;-77
2023/03/31 01:25:53;;;;;;;12.05;2.67;;;;;;;9.46;100.00;100214.25;5094969;28;20028;-78
2023/03/31 01:28:24;;;;;;;9.32;2.45;;;;;;;9.47;100.00;100215.06;5095282;28;20036;-78
2023/03/31 01:31:17;;;;;;;9.90;2.10;;;;;;;9.51;100.00;100210.53;5095081;28;20032;-79
2023/03/31 01:34:33;;;;;;;9.52;2.55;;;;;;;9.48;100.00;100189.19;5094784;28;20024;-79
2023/03/31 01:37:35;;;;;;;9.63;2.50;;;;;;;9.53;100.00;100188.84;4992897;28;20050;-81
2023/03/31 01:40:32;;;;;;;11.93;2.53;;;;;;;9.51;100.00;100192.47;4976744;28;20038;-77
2023/03/31 01:43:06;;;;;;;10.30;2.58;;;;;;;9.40;100.00;100176.00;4935399;29;20077;-78
2023/03/31 01:45:37;;;;;;;11.27;3.00;;;;;;;9.46;100.00;100178.16;4935109;29;20071;-78
2023/03/31 01:48:20;;;;;;;12.85;3.00;;;;;;;9.46;100.00;100175.59;4935072;29;20035;-77
2023/03/31 01:50:52;;;;;;;12.40;2.50;;;;;;;9.47;100.00;100171.25;4935248;29;20111;-77
2023/03/31 01:53:37;;;;;;;14.38;2.58;;;;;;;9.46;100.00;100161.88;4934987;29;20035;-76
2023/03/31 01:56:10;;;;;;;11.40;2.70;;;;;;;9.29;100.00;100131.28;4924984;29;20040;-75
2023/03/31 01:58:43;;;;;;;9.23;3.03;;;;;;;9.36;100.00;100137.69;4934586;29;20524;-76
2023/03/31 02:01:17;;;;;;;11.85;3.47;;;;;;;9.36;100.00;100130.75;4934659;29;20467;-78
2023/03/31 02:03:52;;;;;;;12.35;3.00;;;;;;;9.43;100.00;100138.88;4934764;29;20509;-77
2023/03/31 02:06:25;;;;;;;17.60;3.28;;;;;;;9.44;100.00;100127.66;4935006;29;20047;-78
2023/03/31 02:08:55;;;;;;;14.38;3.03;;;;;;;9.43;100.00;100116.50;4934378;29;20461;-75
2023/03/31 02:11:21;;;;;;;8.27;2.90;;;;;;;9.42;100.00;100107.13;4946718;28;20069;-77
2023/03/31 02:13:51;;;;;;;15.68;2.63;;;;;;;9.41;100.00;100094.34;5031919;28;20048;-76
2023/03/31 02:16:24;;;;;;;12.32;2.78;;;;;;;9.40;100.00;100090.97;5031783;28;20040;-76
2023/03/31 02:18:53;;;;;;;9.27;2.90;;;;;;;9.41;100.00;100082.28;5070158;28;20082;-77
2023/03/31 02:21:21;;;;;;;14.30;3.05;;;;;;;9.40;100.00;100072.91;5075322;28;20032;-77
2023/03/31 02:23:50;;;;;;;13.18;2.63;;;;;;;9.30;100.00;100053.06;5093736;28;20029;-76
2023/03/31 02:26:23;;;;;;;10.65;2.63;;;;;;;9.38;100.00;100063.66;5094196;28;20054;-77
2023/03/31 02:28:48;;;;;;;9.38;2.50;;;;;;;9.33;100.00;100034.81;5094067;28;20349;-76
2023/03/31 02:31:37;;;;;;;10.02;2.42;;;;;;;9.38;100.00;100041.28;5093127;28;20069;-77
2023/03/31 02:34:02;;;;;;;9.32;2.05;;;;;;;9.23;100.00;100006.28;5093724;28;20028;-78
2023/03/31 02:36:28;;;;;;;10.50;2.35;;;;;;;9.40;100.00;100029.13;5093522;28;20031;-77
2023/03/31 02:38:59;;;;;;;13.40;2.80;;;;;;;9.25;100.00;100001.06;5093639;28;20080;-76
2023/03/31 02:41:24;;;;;;;12.15;3.00;;;;;;;9.40;100.00;100013.66;5093785;28;20322;-76
2023/03/31 02:43:50;;;;;;;13.50;2.47;;;;;;;9.37;100.00;100005.34;5093572;28;20039;-77
2023/03/31 02:46:15;;;;;;;12.00;2.97;;;;;;;9.17;100.00;99968.91;5093686;28;20027;-76
2023/03/31 02:48:46;;;;;;;11.00;3.28;;;;;;;9.39;100.00;99995.72;5093454;28;20032;-77
2023/03/31 02:51:31;;;;;;;9.80;2.75;;;;;;;9.39;100.00;99982.84;5093352;28;20480;-75
2023/03/31 02:53:56;;;;;;;12.98;2.95;;;;;;;9.37;100.00;99964.94;5093353;28;20043;-79
2023/03/31 02:56:40;;;;;;;12.48;3.03;;;;;;;9.36;100.00;99965.03;5093307;28;20468;-76
2023/03/31 02:59:26;;;;;;;10.90;2.95;;;;;;;9.34;100.00;99954.84;5093428;28;20032;-75
2023/03/31 03:02:15;;;;;;;14.57;2.60;;;;;;;9.33;100.00;99942.06;5093617;28;20740;-75
2023/03/31 03:04:52;;;;;;;13.93;2.95;;;;;;;9.33;100.00;99932.56;5093275;28;20027;-76
2023/03/31 03:07:44;;;;;;;10.82;2.95;;;;;;;9.32;100.00;99930.91;5093226;28;20070;-75
2023/03/31 03:10:33;;;;;;;13.30;2.78;;;;;;;9.34;100.00;99931.66;5069962;28;20040;-77
2023/03/31 03:13:13;;;;;;;11.32;3.47;;;;;;;9.36;100.00;99921.25;5093178;28;20111;-76
2023/03/31 03:15:51;;;;;;;11.30;2.92;;;;;;;9.35;100.00;99914.44;5075024;28;20036;-76
2023/03/31 03:18:17;;;;;;;13.90;3.63;;;;;;;9.29;100.00;99909.72;5093228;28;20028;-78
2023/03/31 03:20:47;;;;;;;12.05;3.80;;;;;;;9.23;100.00;99889.53;5092870;28;20599;-76
2023/03/31 03:23:13;;;;;;;15.20;3.50;;;;;;;9.22;100.00;99891.31;5074842;28;20055;-76
2023/03/31 03:25:38;;;;;;;15.02;3.60;;;;;;;9.33;100.00;99911.13;5092697;28;20063;-84
2023/03/31 03:28:03;;;;;;;15.82;3.72;;;;;;;9.29;100.00;99897.66;5092934;28;20023;-83
2023/03/31 03:30:29;;;;;;;17.25;3.60;;;;;;;9.15;100.00;99870.34;5093012;28;20020;-83
2023/03/31 03:32:54;;;;;;;14.70;3.78;;;;;;;9.33;100.00;99895.69;5092941;28;20172;-82
2023/03/31 03:35:20;;;;;;;13.30;3.33;;;;;;;9.15;100.00;99874.66;5092875;28;20031;-84
2023/03/31 03:37:45;;;;;;;14.07;3.20;;;;;;;9.14;100.00;99870.41;5092908;28;20426;-82
2023/03/31 03:40:11;;;;;;;10.20;2.65;;;;;;;9.18;100.00;99871.84;5092525;28;20330;-83
2023/03/31 03:42:37;;;;;;;11.88;3.58;;;;;;;9.26;100.00;99879.03;5074558;28;20032;-82
2023/03/31 03:45:03;;;;;;;10.00;3.00;;;;;;;9.27;100.00;99868.63;5092795;28;20052;-81
2023/03/31 03:47:28;;;;;;;11.30;2.85;;;;;;;9.20;100.00;99854.53;5092626;28;20059;-82
2023/03/31 03:49:53;;;;;;;11.23;3.05;;;;;;;9.27;100.00;99853.16;5074540;28;20020;-81
2023/03/31 03:52:19;;;;;;;14.50;3.65;;;;;;;9.28;100.00;99851.41;5092689;28;20037;-82
2023/03/31 03:54:45;;;;;;;17.83;3.10;;;;;;;9.10;100.00;99814.94;5092466;28;20461;-77
2023/03/31 03:57:10;;;;;;;16.52;3.42;;;;;;;9.25;100.00;99837.00;5092662;28;20077;-76
2023/03/31 03:59:35;;;;;;;17.45;3.75;;;;;;;9.25;100.00;99831.03;5092697;28;20502;-76
2023/03/31 04:02:01;;;;;;;14.45;2.97;;;;;;;9.23;100.00;99820.00;5092525;28;20450;-77
2023/03/31 04:04:26;;;;;;;13.95;3.17;;;;;;;9.21;100.00;99807.22;5092574;28;20031;-78
2023/03/31 04:06:51;;;;;;;13.15;3.22;;;;;;;9.04;100.00;99781.88;5092237;28;20461;-82
2023/03/31 04:09:17;;;;;;;13.27;3.08;;;;;;;9.02;100.00;99765.72;5092448;28;20055;-77
2023/03/31 04:11:42;;;;;;;12.45;3.28;;;;;;;8.90;100.00;99750.25;5092462;28;20024;-76
2023/03/31 04:14:07;;;;;;;10.38;2.70;;;;;;;9.03;100.00;99775.09;5092504;28;20039;-76
2023/03/31 04:16:33;;;;;;;10.27;3.15;;;;;;;9.06;100.00;99772.31;5092351;28;20053;-77
2023/03/31 04:19:02;;;;;;;15.23;3.35;;;;;;;9.07;100.00;99766.22;5092536;28;20028;-78
2023/03/31 04:21:29;;;;;;;16.15;2.90;;;;;;;9.04;100.00;99758.72;5092343;28;20384;-75
2023/03/31 04:24:00;;;;;;;15.00;3.35;;;;;;;9.02;100.00;99752.84;5092209;28;20028;-74
2023/03/31 04:26:37;;;;;;;12.45;3.15;;;;;;;8.87;100.00;99734.22;5092555;28;20028;-75
2023/03/31 04:29:04;;;;;;;10.68;2.03;;;;;;;8.65;100.00;99698.91;5092396;28;20016;-79
2023/03/31 04:31:30;;;;;;;13.18;2.95;;;;;;;8.89;100.00;99745.22;5092210;28;20461;-74
2023/03/31 04:34:01;;;;;;;9.73;2.53;;;;;;;8.82;100.00;99726.81;5092322;28;20017;-75
2023/03/31 04:36:27;;;;;;;10.45;2.53;;;;;;;8.70;100.00;99712.28;5092223;28;20350;-74
2023/03/31 04:38:56;;;;;;;13.02;2.38;;;;;;;8.79;100.00;99716.75;5092205;28;20031;-74
2023/03/31 04:41:22;;;;;;;11.18;2.38;;;;;;;8.82;100.00;99716.53;5092491;28;20110;-77
2023/03/31 04:43:48;;;;;;;15.13;2.90;;;;;;;8.76;100.00;99704.13;5092296;28;20024;-75
2023/03/31 04:46:13;;;;;;;12.50;2.58;;;;;;;8.74;100.00;99700.00;5092178;28;20107;-76
2023/03/31 04:48:39;;;;;;;11.93;2.70;;;;;;;8.74;100.00;99681.97;5092016;28;20077;-75
2023/03/31 04:51:04;;;;;;;10.10;2.80;;;;;;;8.75;100.00;99687.03;5074306;28;20027;-75
2023/03/31 04:53:30;;;;;;;11.75;2.80;;;;;;;8.75;100.00;99684.47;5091991;28;20024;-75
2023/03/31 04:55:55;;;;;;;12.10;3.00;;;;;;;8.74;100.00;99672.50;5095419;28;20115;-74
2023/03/31 04:58:21;;;;;;;10.40;2.70;;;;;;;8.74;100.00;99679.41;5095739;28;20028;-77
2023/03/31 05:00:46;;;;;;;12.20;2.70;;;;;;;8.74;100.00;99674.25;5095664;28;20480;-75
2023/03/31 05:03:12;;;;;;;10.75;2.30;;;;;;;8.69;100.00;99664.31;5095562;28;20024;-75
2023/03/31 05:05:37;;;;;;;9.55;2.63;;;;;;;8.64;100.00;99643.22;5095438;28;20028;-76
2023/03/31 05:08:03;;;;;;;8.82;2.00;;;;;;;8.71;100.00;99661.63;5095609;28;20416;-76
2023/03/31 05:10:30;;;;;;;11.30;2.33;;;;;;;8.57;100.00;99636.91;5095516;28;20028;-77
2023/03/31 05:12:55;;;;;;;9.70;2.20;;;;;;;8.73;100.00;99654.59;5095462;28;20085;-77
2023/03/31 05:15:23;;;;;;;11.95;2.60;;;;;;;8.74;100.00;99645.94;5095559;28;20426;-76
2023/03/31 05:17:48;;;;;;;11.38;2.42;;;;;;;8.71;100.00;99634.13;5095151;28;20064;-75
2023/03/31 05:20:14;;;;;;;10.77;2.95;;;;;;;8.60;100.00;99603.22;5095115;28;20594;-74
2023/03/31 05:22:40;;;;;;;12.27;2.33;;;;;;;8.65;100.00;99606.25;5094734;28;20421;-74
2023/03/31 05:25:07;;;;;;;10.57;2.80;;;;;;;8.73;100.00;99618.56;5094886;28;20464;-75
2023/03/31 05:27:34;;;;;;;8.02;2.42;;;;;;;8.81;100.00;99629.94;5094940;28;20181;-76
2023/03/31 05:30:00;;;;;;;9.45;2.63;;;;;;;8.68;100.00;99595.75;5094833;28;20027;-75
2023/03/31 05:32:26;;;;;;;10.63;2.95;;;;;;;8.83;100.00;99607.47;5094774;28;20396;-76
2023/03/31 05:34:55;;;;;;;8.93;2.45;;;;;;;8.84;100.00;99613.44;5094748;28;20436;-77
2023/03/31 05:37:21;;;;;;;9.82;2.65;;;;;;;8.85;100.00;99621.06;5094760;28;20115;-76
2023/03/31 05:39:46;;;;;;;10.55;3.00;;;;;;;8.81;100.00;99600.81;5094624;28;20055;-76
2023/03/31 05:42:12;;;;;;;7.40;2.17;;;;;;;8.68;100.00;99580.31;5094537;28;20121;-78
2023/03/31 05:44:37;;;;;;;7.70;2.60;;;;;;;8.61;100.00;99566.25;5094559;28;20035;-76
2023/03/31 05:47:02;;;;;;;10.50;2.47;;;;;;;8.88;100.00;99609.72;5076351;28;20468;-76
2023/03/31 05:49:31;;;;;;;10.65;2.58;;;;;;;8.70;100.00;99562.19;5094535;28;20470;-77
2023/03/31 05:51:56;;;;;;;8.38;2.45;;;;;;;8.59;100.00;99539.84;5094397;28;20450;-76
2023/03/31 05:54:21;;;;;;;10.65;2.53;;;;;;;8.81;100.00;99580.22;5094412;28;20034;-77
2023/03/31 05:56:47;;;;;;;9.88;2.10;;;;;;;8.94;100.00;99598.13;5094365;28;20038;-77
2023/03/31 05:59:12;;;;;;;7.50;2.03;;;;;;;8.89;100.00;99596.72;5094171;28;20492;-77
2023/03/31 06:01:38;;;;;;;6.20;2.28;;;;;;;8.86;100.00;99585.84;5094368;28;20385;-76
2023/03/31 06:04:03;;;;;;;9.88;2.17;;;;;;;8.90;100.00;99600.94;5075748;28;20099;-76
2023/03/31 06:06:28;;;;;;;9.30;2.30;;;;;;;8.83;100.00;99589.44;5092889;28;20039;-76
2023/03/31 06:08:54;;;;;;;6.53;2.28;;;;;;;8.91;100.00;99597.41;5094010;28;20137;-75
2023/03/31 06:11:21;;;;;;;9.52;2.55;;;;;;;8.82;100.00;99581.84;5076160;28;20460;-76
2023/03/31 06:13:47;;;;;;;7.95;2.22;;;;;;;8.95;100.00;99581.72;5093943;28;20055;-80
2023/03/31 06:16:14;;;;;;;8.25;3.55;;;;;;;8.92;100.00;99577.63;5093830;28;20024;-76
2023/03/31 06:18:40;;;;;;;10.85;3.00;;;;;;;8.95;100.00;99579.16;5093740;28;20396;-75
2023/03/31 06:21:06;;;;;;;9.73;2.88;;;;;;;8.94;100.00;99574.94;5093838;28;20021;-77
2023/03/31 06:23:32;;;;;;;9.20;3.17;;;;;;;8.93;100.00;99573.31;5093803;28;20032;-76
2023/03/31 06:26:07;;;;;;;12.38;3.15;;;;;;;8.87;100.00;99564.31;5093716;28;20524;-73
2023/03/31 06:28:33;;;;;;;10.40;2.78;;;;;;;8.84;100.00;99575.63;5093476;28;20028;-73
2023/03/31 06:31:04;;;;;;;9.40;2.85;;;;;;;8.61;100.00;99535.38;5093652;28;20032;-76
2023/03/31 06:33:30;;;;;;;9.40;2.22;;;;;;;8.72;100.00;99544.88;5074945;28;20115;-72
2023/03/31 06:35:56;;;;;;;9.38;2.58;;;;;;;8.78;100.00;99565.81;5053599;28;20040;-73
2023/03/31 06:38:22;;;;;;;10.95;2.60;;;;;;;8.76;100.00;99548.88;5073972;28;20024;-73
2023/03/31 06:40:48;;;;;;;9.27;2.50;;;;;;;8.67;100.00;99524.63;5073090;28;20431;-76
2023/03/31 06:43:13;;;;;;;7.07;2.05;;;;;;;8.63;100.00;99518.88;5072990;28;20109;-75
2023/03/31 06:45:38;;;;;;;7.28;2.75;;;;;;;8.67;100.00;99529.78;5073211;28;20374;-75
2023/03/31 06:48:04;;;;;;;8.98;2.80;;;;;;;8.67;100.00;99529.78;5073103;28;20114;-78
2023/03/31 06:50:30;;;;;;;6.97;2.53;;;;;;;8.70;100.00;99523.59;5072925;28;20508;-80
2023/03/31 06:52:55;;;;;;;8.40;3.13;;;;;;;8.64;100.00;99514.56;5072980;28;20020;-77
2023/03/31 06:55:20;;;;;;;9.68;2.95;;;;;;;8.81;100.00;99544.16;5072810;28;20086;-78
2023/03/31 06:57:46;;;;;;;5.68;2.40;;;;;;;8.78;100.00;99527.22;5072840;28;20131;-76
2023/03/31 07:00:12;;;;;;;5.78;2.03;;;;;;;8.83;100.00;99537.16;5072798;28;20035;-76
2023/03/31 07:02:37;;;;;;;7.25;2.40;;;;;;;8.83;100.00;99521.69;5072801;28;20401;-76
2023/03/31 07:05:03;;;;;;;5.07;2.10;;;;;;;8.79;100.00;99515.16;5072780;28;20111;-78
2023/03/31 07:07:31;;;;;;;8.73;3.35;;;;;;;8.86;100.00;99519.72;5072338;28;20036;-77
2023/03/31 07:09:57;;;;;;;5.70;2.45;;;;;;;8.83;100.00;99517.38;5072812;28;20492;-76
2023/03/31 07:12:22;;;;;;;7.85;2.63;;;;;;;8.82;100.00;99500.28;5072728;28;20115;-78
2023/03/31 07:14:47;;;;;;;5.70;2.38;;;;;;;8.93;100.00;99511.50;5072789;28;20419;-76
2023/03/31 07:17:13;;;;;;;6.18;2.92;;;;;;;8.99;100.00;99503.34;5072214;28;20028;-81
2023/03/31 07:19:40;;;;;;;6.70;3.03;;;;;;;8.99;100.00;99495.59;5072571;28;20029;-81
2023/03/31 07:22:06;;;;;;;5.90;2.72;;;;;;;9.18;100.00;99496.63;5072428;28;20111;-79
2023/03/31 07:24:32;;;;;;;6.10;2.47;;;;;;;9.16;100.00;99466.78;5072781;28;20107;-78
2023/03/31 07:26:57;;;;;;;5.18;2.53;;;;;;;9.28;100.00;99480.44;5072319;28;20082;-76
2023/03/31 07:29:23;;;;;;;6.32;3.13;;;;;;;9.42;100.00;99501.59;5072539;28;20025;-75
2023/03/31 07:31:49;;;;;;;9.68;3.20;;;;;;;9.41;100.00;99491.41;5072415;28;20074;-82
2023/03/31 07:34:15;;;;;;;11.15;3.45;;;;;;;9.40;100.00;99488.03;5072464;28;20029;-82
2023/03/31 07:36:40;;;;;;;7.15;3.28;;;;;;;9.35;100.00;99484.19;5072229;28;20020;-84
2023/03/31 07:39:06;;;;;;;10.95;3.95;;;;;;;9.44;100.00;99491.19;5072159;28;20391;-83
2023/03/31 07:41:31;;;;;;;8.82;3.65;;;;;;;9.50;100.00;99482.94;5072300;28;20087;-84
2023/03/31 07:43:56;;;;;;;9.80;3.40;;;;;;;9.55;100.00;99483.41;5072299;28;20040;-83
2023/03/31 07:46:24;;;;;;;9.05;3.47;;;;;;;9.64;100.00;99482.69;5053662;28;20032;-85
2023/03/31 07:48:50;;;;;;;11.02;3.95;;;;;;;9.74;100.00;99482.75;5071831;28;20025;-83
2023/03/31 07:51:19;;;;;;;8.10;3.05;;;;;;;9.81;100.00;99485.63;5073422;28;20028;-86
2023/03/31 07:53:45;;;;;;;11.10;3.55;;;;;;;9.87;100.00;99467.91;5071917;28;20827;-87
2023/03/31 07:56:11;;;;;;;9.25;3.30;;;;;;;10.03;100.00;99467.50;5071824;28;20481;-87
2023/03/31 07:58:36;;;;;;;11.60;3.05;;;;;;;10.20;100.00;99471.22;5072329;28;20028;-86
2023/03/31 08:01:02;;;;;;;14.38;3.10;;;;;;;10.31;100.00;99459.09;5072339;28;20028;-79
2023/03/31 08:03:27;;;;;;;11.77;2.78;;;;;;;10.49;100.00;99464.50;5072078;28;20024;-79
2023/03/31 08:05:53;;;;;;;11.32;2.92;;;;;;;10.47;100.00;99437.19;5072123;28;20025;-87
2023/03/31 08:08:20;;;;;;;11.27;3.25;;;;;;;10.71;100.00;99462.66;5071453;28;20037;-85
2023/03/31 08:10:46;;;;;;;9.25;2.75;;;;;;;10.75;100.00;99464.06;5072250;28;20020;-86
2023/03/31 08:13:11;;;;;;;12.50;3.17;;;;;;;10.76;100.00;99465.69;5071985;28;20389;-86
2023/03/31 08:15:37;;;;;;;13.95;3.60;;;;;;;10.75;100.00;99457.13;5071952;28;20123;-85
2023/03/31 08:18:03;;;;;;;14.32;3.17;;;;;;;10.74;100.00;99455.50;5071992;28;20032;-85
2023/03/31 08:20:29;;;;;;;13.60;2.80;;;;;;;10.72;100.00;99452.22;5071840;28;20024;-85
2023/03/31 08:22:54;;;;;;;19.77;3.78;;;;;;;10.72;100.00;99451.41;5071952;28;20036;-80
2023/03/31 08:25:20;;;;;;;13.93;3.55;;;;;;;10.76;100.00;99451.00;5071933;28;20021;-81
2023/03/31 08:27:49;;;;;;;15.20;3.70;;;;;;;10.78;100.00;99443.94;5071885;28;20056;-85
2023/03/31 08:30:16;;;;;;;12.73;3.40;;;;;;;10.93;100.00;99451.34;5074454;28;20358;-83
2023/03/31 08:32:41;;;;;;;14.18;3.63;;;;;;;10.85;100.00;99429.56;5075856;28;20103;-80
2023/03/31 08:35:07;;;;;;;13.95;3.83;;;;;;;11.01;100.00;99435.97;5077281;28;20538;-83
2023/03/31 08:37:32;;;;;;;16.23;3.63;;;;;;;10.94;100.00;99416.81;5095873;28;20425;-84
2023/03/31 08:39:59;;;;;;;15.32;3.67;;;;;;;11.23;100.00;99453.03;5095979;28;20032;-83
2023/03/31 08:42:35;;;;;;;13.18;3.75;;;;;;;11.34;100.00;99442.56;5095742;28;20077;-80
2023/03/31 08:45:19;;;;;;;18.13;3.60;;;;;;;11.42;100.00;99446.09;5095656;28;20119;-79
2023/03/31 08:47:47;;;;;;;15.98;3.58;;;;;;;11.47;100.00;99433.56;5095497;28;20027;-84
2023/03/31 08:50:16;;;;;;;17.20;3.60;;;;;;;11.56;100.00;99439.69;5095820;28;20032;-80
2023/03/31 08:52:51;;;;;;;15.02;3.88;;;;;;;11.65;100.00;99430.31;5095950;28;20396;-77
2023/03/31 08:55:42;;;;;;;15.85;3.42;;;;;;;11.77;100.00;99435.19;5095696;28;20379;-78
2023/03/31 08:58:38;;;;;;;14.82;3.65;;;;;;;11.57;100.00;99407.72;5095508;28;20115;-78
2023/03/31 09:01:12;;;;;;;17.15;4.30;;;;;;;11.81;100.00;99428.00;5095552;28;20020;-78
2023/03/31 09:03:46;;;;;;;12.85;3.50;;;;;;;11.82;100.00;99441.75;5095346;28;20486;-77
2023/03/31 09:06:16;;;;;;;14.40;3.70;;;;;;;11.93;100.00;99426.91;5095693;28;20028;-76
2023/03/31 09:08:42;;;;;;;13.13;3.33;;;;;;;11.94;100.00;99428.53;5095310;28;20081;-78
2023/03/31 09:11:18;;;;;;;15.88;4.40;;;;;;;12.09;100.00;99439.22;5095507;28;20055;-77
2023/03/31 09:13:56;;;;;;;15.95;4.53;;;;;;;12.13;100.00;99406.16;5095226;28;20360;-80
2023/03/31 09:16:28;;;;;;;18.88;3.65;;;;;;;12.35;100.00;99427.31;5095253;28;20054;-78
2023/03/31 09:18:58;;;;;;;;;;;;;;;12.52;100.00;99417.16;5095777;28;20128;-78
2023/03/31 09:21:29;;;;;;;15.00;3.50;;;;;;;12.47;100.00;99416.75;5095240;28;19919;-77
2023/03/31 09:24:02;;;;;;;15.43;3.60;;;;;;;12.57;100.00;99420.94;5095267;28;20037;-78
2023/03/31 09:26:41;;;;;;;16.42;3.33;;;;;;;12.77;100.00;99411.28;5095592;28;20067;-78
2023/03/31 09:29:37;;;;;;;14.10;3.50;;;;;;;12.81;100.00;99391.94;5095122;28;20020;-78
2023/03/31 09:32:15;;;;;;;11.10;3.03;;;;;;;12.87;100.00;99408.66;5094985;28;20024;-76
2023/03/31 09:34:40;;;;;;;15.77;3.65;;;;;;;12.72;97.75;99399.75;5094931;28;20400;-77
2023/03/31 09:37:09;;;;;;;17.90;3.45;;;;;;;12.63;94.95;99394.47;5094917;28;20024;-75
2023/03/31 09:39:35;;;;;;;15.73;4.20;;;;;;;12.48;94.62;99388.13;5094979;28;20031;-75
2023/03/31 09:42:00;;;;;;;17.00;3.50;;;;;;;12.53;96.22;99395.50;5094506;28;20384;-77
2023/03/31 09:44:41;;;;;;;15.70;3.47;;;;;;;12.56;95.56;99396.00;5094751;28;20146;-78
2023/03/31 09:47:14;;;;;;;17.35;4.32;;;;;;;12.61;95.13;99380.06;5094509;28;20059;-79
2023/03/31 09:49:43;;;;;;;14.52;3.50;;;;;;;12.61;94.07;99385.22;5094698;28;20149;-78
2023/03/31 09:52:26;;;;;;;13.30;3.00;;;;;;;12.66;94.55;99397.72;5094736;28;20069;-78
2023/03/31 09:54:54;;;;;;;14.73;2.92;;;;;;;12.59;93.67;99381.97;5092917;28;20036;-78
2023/03/31 09:57:29;;;;;;;14.95;3.30;;;;;;;12.72;95.31;99394.56;5075952;28;20036;-78
2023/03/31 10:00:15;;;;;;;14.00;3.65;;;;;;;12.54;94.28;99347.91;5074925;28;20021;-77
2023/03/31 10:02:46;;;;;;;15.05;2.97;;;;;;;12.94;92.54;99391.56;5082153;28;20342;-75
2023/03/31 10:05:21;;;;;;;13.02;2.97;;;;;;;12.93;92.50;99367.44;5085133;28;20027;-76
2023/03/31 10:07:46;;;;;;;14.48;3.03;;;;;;;12.87;89.90;99367.19;5076398;28;20507;-78
2023/03/31 10:10:27;;;;;;;14.55;2.65;;;;;;;12.95;89.13;99394.97;5073906;28;20020;-74
2023/03/31 10:12:53;;;;;;;11.85;2.50;;;;;;;12.87;90.11;99383.56;5073813;28;20028;-78
2023/03/31 10:15:22;;;;;;;11.98;2.90;;;;;;;12.93;90.45;99382.97;5073950;28;20485;-77
2023/03/31 10:17:49;;;;;;;14.82;3.22;;;;;;;13.11;91.35;99392.53;5073860;28;20033;-76
2023/03/31 10:20:32;;;;;;;12.60;3.13;;;;;;;12.99;89.26;99353.09;5073840;28;20389;-76
2023/03/31 10:23:05;;;;;;;11.15;2.92;;;;;;;13.22;90.32;99368.22;5074900;28;20036;-85
2023/03/31 10:25:32;;;;;;;12.43;3.00;;;;;;;13.21;87.98;99372.56;5075148;28;20028;-81
2023/03/31 10:28:00;;;;;;;12.55;2.55;;;;;;;13.13;88.69;99357.72;5073599;28;20025;-85
2023/03/31 10:30:34;;;;;;;11.07;2.85;;;;;;;13.33;86.31;99368.78;5055942;28;20378;-87
2023/03/31 10:33:04;;;;;;;11.18;2.45;;;;;;;13.19;86.94;99341.63;5073745;28;20377;-86
2023/03/31 10:35:35;;;;;;;11.45;2.70;;;;;;;13.60;88.05;99367.88;5073689;28;20037;-86
2023/03/31 10:38:09;;;;;;;11.40;2.70;;;;;;;13.62;85.54;99350.38;5073369;28;20067;-80
2023/03/31 10:40:35;;;;;;;10.70;2.42;;;;;;;13.80;86.72;99358.09;5073451;28;20025;-85
2023/03/31 10:43:15;;;;;;;12.05;2.88;;;;;;;13.81;84.50;99371.88;5073238;28;20484;-85
2023/03/31 10:45:47;;;;;;;12.13;3.15;;;;;;;13.65;85.92;99341.47;5073278;28;20025;-86
2023/03/31 10:48:23;;;;;;;14.95;3.15;;;;;;;13.65;85.66;99364.81;5073217;28;20024;-85
2023/03/31 10:50:48;;;;;;;10.27;2.35;;;;;;;13.62;86.05;99355.56;5073174;28;20025;-86
2023/03/31 10:53:15;;;;;;;13.30;3.08;;;;;;;13.54;85.54;99357.28;5181299;22;20039;-85
2023/03/31 10:56:05;;;;;;;11.40;2.92;;;;;;;13.48;85.27;99346.56;5113819;28;20042;-81
2023/03/31 10:58:42;;;;;;;10.32;3.00;;;;;;;13.53;85.69;99347.88;5113631;28;20038;-81
2023/03/31 11:01:39;;;;;;;14.07;2.78;;;;;;;13.55;84.54;99338.16;5093425;28;20039;-83
2023/03/31 11:04:22;;;;;;;14.57;2.83;;;;;;;13.67;84.61;99352.53;5093351;28;20042;-86
2023/03/31 11:06:50;;;;;;;10.77;2.67;;;;;;;13.68;82.93;99336.78;5093224;28;20027;-79
2023/03/31 11:09:41;;;;;;;10.38;2.28;;;;;;;13.82;84.83;99332.00;5093201;28;20030;-84
2023/03/31 11:12:10;;;;;;;11.23;3.15;;;;;;;13.79;83.67;99333.13;5093203;28;20028;-85
2023/03/31 11:14:59;;;;;;;13.75;2.85;;;;;;;13.66;83.87;99341.28;5093053;28;20016;-83
2023/03/31 11:17:28;;;;;;;13.63;3.40;;;;;;;13.63;86.12;99327.84;5092747;28;20477;-85
2023/03/31 11:20:09;;;;;;;13.38;3.03;;;;;;;13.64;85.46;99329.47;5093133;28;20148;-82
2023/03/31 11:22:53;;;;;;;12.57;2.95;;;;;;;13.73;84.58;99328.53;5092839;28;20035;-88
2023/03/31 11:25:22;;;;;;;12.00;2.92;;;;;;;13.68;82.21;99304.84;5093092;28;20481;-81
2023/03/31 11:28:01;;;;;;;10.35;2.95;;;;;;;13.77;83.99;99307.34;5092895;28;20024;-83
2023/03/31 11:30:44;;;;;;;15.57;2.78;;;;;;;13.82;82.47;99282.69;5092835;28;20077;-81
2023/03/31 11:33:21;;;;;;;14.18;2.90;;;;;;;14.23;81.78;99314.81;5092638;28;20500;-78
2023/03/31 11:36:04;;;;;;;11.10;2.75;;;;;;;14.12;80.18;99300.34;5102544;28;20063;-76
2023/03/31 11:38:47;;;;;;;11.50;2.90;;;;;;;14.10;80.01;99315.28;5113748;28;20038;-86